createdAt,value
2017-11-12T00:02:10.853Z,3.10
2017-11-12T00:04:38.349Z,2.63
2017-11-12T00:07:05.821Z,2.63
2017-11-12T00:09:33.282Z,3.20
2017-11-12T00:12:00.744Z,2.13
2017-11-12T00:14:28.224Z,2.40
2017-11-12T00:16:55.676Z,2.37
2017-11-12T00:19:23.142Z,2.23
2017-11-12T00:21:52.125Z,2.40
2017-11-12T00:24:19.584Z,2.47
2017-11-12T00:26:47.053Z,2.90
2017-11-12T00:29:14.608Z,2.47
2017-11-12T00:31:43.574Z,2.63
2017-11-12T00:34:11.028Z,2.77
2017-11-12T00:36:38.512Z,3.07
2017-11-12T00:39:08.262Z,3.00
2017-11-12T00:41:36.521Z,2.50
2017-11-12T00:44:05.593Z,3.10
2017-11-12T00:46:33.929Z,2.70
2017-11-12T00:49:01.408Z,2.60
2017-11-12T00:51:28.885Z,3.47
2017-11-12T00:53:56.353Z,3.43
2017-11-12T00:56:23.802Z,3.20
2017-11-12T00:58:51.269Z,4.37
2017-11-12T01:01:18.717Z,4.40
2017-11-12T01:03:46.617Z,4.03
2017-11-12T01:06:14.117Z,4.43
2017-11-12T01:08:41.577Z,4.77
2017-11-12T01:11:09.055Z,5.43
2017-11-12T01:13:36.566Z,5.17
2017-11-12T01:16:04.079Z,4.67
2017-11-12T01:18:31.636Z,3.70
2017-11-12T01:20:59.101Z,3.60
2017-11-12T01:23:27.437Z,2.80
2017-11-12T01:25:54.899Z,3.80
2017-11-12T01:28:22.376Z,3.30
2017-11-12T01:30:49.834Z,3.40
2017-11-12T01:33:17.294Z,3.33
2017-11-12T01:35:44.756Z,3.30
2017-11-12T01:38:12.985Z,3.53
2017-11-12T01:40:40.473Z,4.77
2017-11-12T01:43:08.705Z,3.67
2017-11-12T01:45:36.197Z,3.37
2017-11-12T01:48:03.652Z,3.10
2017-11-12T01:50:31.116Z,3.63
2017-11-12T01:52:58.965Z,3.80
2017-11-12T01:55:26.422Z,4.00
2017-11-12T01:57:53.996Z,4.10
2017-11-12T02:00:22.977Z,3.57
2017-11-12T02:02:50.433Z,3.67
2017-11-12T02:05:18.709Z,3.40
2017-11-12T02:07:46.159Z,3.40
2017-11-12T02:10:13.660Z,5.40
2017-11-12T02:12:41.117Z,3.67
2017-11-12T02:15:09.374Z,3.47
2017-11-12T02:17:36.872Z,3.70
2017-11-12T02:20:04.337Z,3.43
2017-11-12T02:22:31.805Z,3.40
2017-11-12T02:24:59.256Z,2.83
2017-11-12T02:27:26.759Z,2.43
2017-11-12T02:29:55.713Z,2.63
2017-11-12T02:32:23.167Z,2.53
2017-11-12T02:34:50.631Z,2.60
2017-11-12T02:37:18.102Z,2.40
2017-11-12T02:39:45.583Z,2.50
2017-11-12T02:42:13.111Z,3.03
2017-11-12T02:44:40.580Z,2.30
2017-11-12T02:47:08.438Z,2.40
2017-11-12T02:49:35.897Z,2.03
2017-11-12T02:52:03.377Z,2.53
2017-11-12T02:54:30.820Z,2.53
2017-11-12T02:56:58.285Z,2.37
2017-11-12T02:59:25.845Z,3.10
2017-11-12T03:01:54.081Z,2.30
2017-11-12T03:04:21.580Z,2.80
2017-11-12T03:06:49.138Z,2.40
2017-11-12T03:09:17.225Z,2.80
2017-11-12T03:11:45.493Z,2.70
2017-11-12T03:14:13.708Z,2.90
2017-11-12T03:16:41.445Z,2.80
2017-11-12T03:19:09.672Z,2.17
2017-11-12T03:21:37.125Z,2.50
2017-11-12T03:24:04.584Z,2.43
2017-11-12T03:26:32.077Z,2.43
2017-11-12T03:29:00.301Z,1.73
2017-11-12T03:31:27.753Z,2.07
2017-11-12T03:33:55.217Z,2.77
2017-11-12T03:36:22.678Z,2.20
2017-11-12T03:38:50.184Z,2.00
2017-11-12T03:41:18.435Z,2.80
2017-11-12T03:43:46.776Z,2.13
2017-11-12T03:46:14.228Z,2.03
2017-11-12T03:48:41.700Z,1.90
2017-11-12T03:51:09.155Z,2.43
2017-11-12T03:53:36.628Z,2.47
2017-11-12T03:56:04.104Z,2.27
2017-11-12T03:58:31.553Z,2.93
2017-11-12T04:01:00.566Z,2.40
2017-11-12T04:03:28.807Z,2.87
2017-11-12T04:05:56.271Z,3.13
2017-11-12T04:08:24.508Z,3.57
2017-11-12T04:10:52.010Z,3.70
2017-11-12T04:13:20.279Z,2.50
2017-11-12T04:15:49.244Z,3.00
2017-11-12T04:18:16.721Z,3.47
2017-11-12T04:20:44.176Z,3.37
2017-11-12T04:23:11.628Z,4.13
2017-11-12T04:25:39.110Z,5.10
2017-11-12T04:28:06.682Z,4.37
2017-11-12T04:30:35.558Z,3.33
2017-11-12T04:33:03.040Z,4.47
2017-11-12T04:35:31.256Z,4.97
2017-11-12T04:37:58.768Z,3.77
2017-11-12T04:40:27.004Z,4.80
2017-11-12T04:42:54.456Z,3.57
2017-11-12T04:45:22.032Z,3.67
2017-11-12T04:47:49.512Z,3.80
2017-11-12T04:50:17.737Z,4.80
2017-11-12T04:52:45.192Z,4.97
2017-11-12T04:55:12.669Z,3.30
2017-11-12T04:57:40.123Z,3.40
2017-11-12T05:00:07.576Z,2.50
2017-11-12T05:02:35.090Z,2.50
2017-11-12T05:05:02.545Z,1.73
2017-11-12T05:07:29.998Z,1.90
2017-11-12T05:09:57.477Z,2.73
2017-11-12T05:12:24.929Z,1.97
2017-11-12T05:14:52.400Z,2.00
2017-11-12T05:17:19.855Z,2.10
2017-11-12T05:19:47.356Z,1.90
2017-11-12T05:22:14.968Z,1.50
2017-11-12T05:24:42.431Z,2.03
2017-11-12T05:27:09.893Z,1.13
2017-11-12T05:29:37.358Z,1.57
2017-11-12T05:32:04.827Z,1.23
2017-11-12T05:34:33.756Z,1.30
2017-11-12T05:37:01.213Z,1.27
2017-11-12T05:39:28.690Z,1.40
2017-11-12T05:41:56.192Z,1.33
2017-11-12T05:44:24.464Z,1.50
2017-11-12T05:46:53.528Z,1.90
2017-11-12T05:49:20.985Z,1.87
2017-11-12T05:51:48.439Z,1.97
2017-11-12T05:54:15.904Z,2.10
2017-11-12T05:56:43.358Z,2.37
2017-11-12T05:59:10.807Z,2.53
2017-11-12T06:01:39.049Z,1.83
2017-11-12T06:04:07.274Z,1.60
2017-11-12T06:06:34.743Z,2.47
2017-11-12T06:09:02.217Z,1.83
2017-11-12T06:11:29.773Z,1.93
2017-11-12T06:13:57.232Z,1.70
2017-11-12T06:16:24.781Z,2.70
2017-11-12T06:18:52.227Z,1.80
2017-11-12T06:21:19.689Z,2.40
2017-11-12T06:23:48.686Z,1.67
2017-11-12T06:26:16.129Z,2.10
2017-11-12T06:28:43.585Z,2.57
2017-11-12T06:31:11.056Z,2.67
2017-11-12T06:33:38.629Z,2.30
2017-11-12T06:36:06.072Z,2.00
2017-11-12T06:38:33.540Z,2.37
2017-11-12T06:41:00.996Z,2.20
2017-11-12T06:43:28.457Z,1.50
2017-11-12T06:45:56.694Z,2.23
2017-11-12T06:48:24.173Z,1.67
2017-11-12T06:50:51.646Z,2.07
2017-11-12T06:53:19.884Z,2.33
2017-11-12T06:55:47.348Z,2.80
2017-11-12T06:58:14.804Z,2.97
2017-11-12T07:00:42.377Z,2.40
2017-11-12T07:03:11.351Z,2.10
2017-11-12T07:05:38.811Z,2.13
2017-11-12T07:08:06.392Z,2.13
2017-11-12T07:10:33.954Z,2.10
2017-11-12T07:13:03.190Z,1.90
2017-11-12T07:15:30.668Z,2.47
2017-11-12T07:17:58.141Z,1.30
2017-11-12T07:20:25.629Z,1.37
2017-11-12T07:22:53.886Z,1.10
2017-11-12T07:25:21.337Z,1.40
2017-11-12T07:27:48.803Z,1.40
2017-11-12T07:30:16.363Z,1.20
2017-11-12T07:32:43.848Z,1.53
2017-11-12T07:35:12.274Z,1.47
2017-11-12T07:37:39.753Z,1.40
2017-11-12T07:40:07.988Z,2.30
2017-11-12T07:42:35.501Z,1.73
2017-11-12T07:45:02.968Z,1.97
2017-11-12T07:47:31.226Z,1.93
2017-11-12T07:49:59.494Z,2.23
2017-11-12T07:52:27.739Z,2.60
2017-11-12T07:54:55.230Z,2.70
2017-11-12T07:57:23.475Z,2.20
2017-11-12T07:59:50.944Z,2.80
2017-11-12T08:02:18.423Z,2.37
2017-11-12T08:04:45.873Z,2.63
2017-11-12T08:07:14.152Z,2.73
2017-11-12T08:09:41.625Z,2.47
2017-11-12T08:12:09.165Z,1.80
2017-11-12T08:14:37.271Z,2.43
2017-11-12T08:17:04.785Z,1.60
2017-11-12T08:19:32.281Z,1.70
2017-11-12T08:21:59.795Z,1.50
2017-11-12T08:24:28.103Z,1.40
2017-11-12T08:26:56.361Z,1.27
2017-11-12T08:29:23.915Z,1.90
2017-11-12T08:31:51.450Z,2.03
2017-11-12T08:34:18.911Z,1.37
2017-11-12T08:36:46.400Z,1.60
2017-11-12T08:39:13.864Z,1.30
2017-11-12T08:41:42.085Z,1.87
2017-11-12T08:44:09.559Z,1.40
2017-11-12T08:46:37.028Z,2.20
2017-11-12T08:49:04.475Z,1.90
2017-11-12T08:51:31.956Z,1.70
2017-11-12T08:54:00.358Z,1.90
2017-11-12T08:56:27.812Z,1.73
2017-11-12T08:58:56.047Z,1.27
2017-11-12T09:01:23.540Z,1.00
2017-11-12T09:03:51.807Z,1.00
2017-11-12T09:06:20.029Z,1.10
2017-11-12T09:08:47.560Z,0.80
2017-11-12T09:11:15.037Z,0.70
2017-11-12T09:13:42.597Z,0.70
2017-11-12T09:16:10.056Z,0.73
2017-11-12T09:18:38.521Z,0.80
2017-11-12T09:21:05.989Z,0.70
2017-11-12T09:23:33.466Z,0.97
2017-11-12T09:26:01.110Z,1.80
2017-11-12T09:28:28.612Z,1.30
2017-11-12T09:30:57.584Z,0.90
2017-11-12T09:33:25.048Z,2.03
2017-11-12T09:35:52.524Z,2.30
2017-11-12T09:38:19.984Z,1.77
2017-11-12T09:40:48.248Z,2.53
2017-11-12T09:43:16.612Z,1.33
2017-11-12T09:45:44.068Z,1.03
2017-11-12T09:48:11.652Z,0.83
2017-11-12T09:50:39.108Z,0.97
2017-11-12T09:53:07.347Z,1.10
2017-11-12T09:55:34.829Z,1.60
2017-11-12T09:58:02.306Z,1.10
2017-11-12T10:00:30.545Z,1.30
2017-11-12T10:02:58.740Z,1.10
2017-11-12T10:05:26.293Z,1.23
2017-11-12T10:07:54.528Z,1.13
2017-11-12T10:10:22.009Z,1.37
2017-11-12T10:12:49.493Z,1.10
2017-11-12T10:15:16.973Z,1.43
2017-11-12T10:17:44.433Z,1.27
2017-11-12T10:20:11.893Z,2.10
2017-11-12T10:22:39.364Z,1.33
2017-11-12T10:25:06.845Z,1.40
2017-11-12T10:27:34.425Z,1.40
2017-11-12T10:30:02.662Z,1.50
2017-11-12T10:32:30.118Z,1.23
2017-11-12T10:34:57.620Z,1.00
2017-11-12T10:37:25.853Z,0.90
2017-11-12T10:39:53.328Z,1.33
2017-11-12T10:42:20.783Z,1.50
2017-11-12T10:44:48.364Z,1.50
2017-11-12T10:47:18.258Z,1.23
2017-11-12T10:49:45.723Z,1.43
2017-11-12T10:52:13.288Z,2.10
2017-11-12T10:54:40.755Z,1.40
2017-11-12T10:57:08.304Z,1.27
2017-11-12T10:59:35.780Z,1.53
2017-11-12T11:02:04.021Z,1.10
2017-11-12T11:04:31.493Z,0.90
2017-11-12T11:06:58.962Z,1.10
2017-11-12T11:09:26.416Z,0.90
2017-11-12T11:11:53.884Z,1.83
2017-11-12T11:14:22.110Z,2.30
2017-11-12T11:16:50.230Z,1.60
2017-11-12T11:19:19.525Z,1.37
2017-11-12T11:21:47.744Z,2.60
2017-11-12T11:24:15.244Z,1.47
2017-11-12T11:26:42.717Z,0.93
2017-11-12T11:29:10.964Z,1.67
2017-11-12T11:31:39.353Z,0.97
2017-11-12T11:34:06.822Z,1.47
2017-11-12T11:36:35.053Z,1.00
2017-11-12T11:39:02.521Z,1.33
2017-11-12T11:41:29.989Z,1.23
2017-11-12T11:43:57.459Z,1.47
2017-11-12T11:46:24.929Z,1.50
2017-11-12T11:48:53.184Z,1.93
2017-11-12T11:51:20.648Z,1.67
2017-11-12T11:53:48.889Z,1.00
2017-11-12T11:56:16.356Z,1.10
2017-11-12T11:58:43.907Z,0.80
2017-11-12T12:01:11.998Z,1.07
2017-11-12T12:03:39.461Z,1.07
2017-11-12T12:06:07.017Z,1.10
2017-11-12T12:08:35.249Z,1.63
2017-11-12T12:11:02.717Z,1.60
2017-11-12T12:13:30.181Z,1.30
2017-11-12T12:15:57.662Z,1.20
2017-11-12T12:18:26.660Z,1.43
2017-11-12T12:20:54.125Z,2.40
2017-11-12T12:23:22.373Z,1.70
2017-11-12T12:25:49.844Z,1.20
2017-11-12T12:28:17.521Z,1.57
2017-11-12T12:30:45.801Z,1.00
2017-11-12T12:33:14.036Z,1.10
2017-11-12T12:35:41.501Z,2.03
2017-11-12T12:38:08.969Z,2.00
2017-11-12T12:40:37.516Z,2.20
2017-11-12T12:43:04.979Z,2.00
2017-11-12T12:45:32.437Z,1.77
2017-11-12T12:48:00.800Z,1.57
2017-11-12T12:50:28.269Z,1.80
2017-11-12T12:52:55.757Z,2.00
2017-11-12T12:55:23.217Z,2.00
2017-11-12T12:57:51.993Z,1.10
2017-11-12T13:00:19.466Z,1.30
2017-11-12T13:02:46.921Z,1.30
2017-11-12T13:05:15.301Z,0.90
2017-11-12T13:07:42.913Z,1.30
2017-11-12T13:10:10.369Z,1.80
2017-11-12T13:12:38.853Z,1.93
2017-11-12T13:15:06.307Z,2.57
2017-11-12T13:17:33.774Z,1.80
2017-11-12T13:20:01.265Z,2.37
2017-11-12T13:22:28.712Z,2.13
2017-11-12T13:24:56.208Z,4.17
2017-11-12T13:27:23.754Z,1.90
2017-11-12T13:29:51.289Z,2.03
2017-11-12T13:32:18.746Z,2.23
2017-11-12T13:34:46.200Z,1.70
2017-11-12T13:37:13.721Z,1.33
2017-11-12T13:39:41.220Z,1.90
2017-11-12T13:42:08.672Z,1.20
2017-11-12T13:44:36.153Z,1.50
2017-11-12T13:47:03.693Z,1.57
2017-11-12T13:49:31.148Z,1.87
2017-11-12T13:51:58.808Z,1.70
2017-11-12T13:54:26.368Z,1.77
2017-11-12T13:56:53.830Z,1.70
2017-11-12T13:59:21.314Z,1.73
2017-11-12T14:01:49.748Z,2.00
2017-11-12T14:04:17.217Z,1.83
2017-11-12T14:06:44.684Z,2.13
2017-11-12T14:09:12.135Z,1.97
2017-11-12T14:11:40.098Z,2.23
2017-11-12T14:14:07.564Z,1.53
2017-11-12T14:16:35.023Z,1.00
2017-11-12T14:19:02.472Z,1.47
2017-11-12T14:21:29.946Z,1.17
2017-11-12T14:23:58.200Z,0.90
2017-11-12T14:26:27.188Z,0.93
2017-11-12T14:28:55.497Z,1.20
2017-11-12T14:31:23.732Z,0.90
2017-11-12T14:33:51.201Z,1.10
2017-11-12T14:36:18.728Z,1.43
2017-11-12T14:38:46.197Z,1.00
2017-11-12T14:41:14.316Z,1.53
2017-11-12T14:43:41.801Z,1.17
2017-11-12T14:46:09.264Z,1.20
2017-11-12T14:48:36.795Z,1.30
2017-11-12T14:51:04.292Z,1.23
2017-11-12T14:53:31.770Z,1.30
2017-11-12T14:55:59.341Z,1.77
2017-11-12T14:58:26.797Z,1.83
2017-11-12T15:00:54.251Z,2.37
2017-11-12T15:03:22.000Z,1.87
2017-11-12T15:05:49.489Z,2.30
2017-11-12T15:08:17.789Z,1.87
2017-11-12T15:10:45.280Z,2.10
2017-11-12T15:13:12.751Z,1.33
2017-11-12T15:15:40.205Z,1.90
2017-11-12T15:18:08.513Z,2.33
2017-11-12T15:20:36.756Z,1.60
2017-11-12T15:23:04.209Z,1.87
2017-11-12T15:25:32.469Z,2.70
2017-11-12T15:27:59.940Z,2.80
2017-11-12T15:30:27.405Z,1.70
2017-11-12T15:32:55.657Z,1.30
2017-11-12T15:35:23.150Z,2.20
2017-11-12T15:37:50.608Z,1.63
2017-11-12T15:40:18.073Z,1.80
2017-11-12T15:42:46.314Z,1.53
2017-11-12T15:45:13.798Z,1.50
2017-11-12T15:47:42.074Z,1.20
2017-11-12T15:50:09.527Z,1.87
2017-11-12T15:52:37.005Z,1.87
2017-11-12T15:55:04.492Z,1.80
2017-11-12T15:57:31.956Z,2.00
2017-11-12T15:59:59.430Z,1.73
2017-11-12T16:02:26.888Z,2.20
2017-11-12T16:04:54.342Z,1.93
2017-11-12T16:07:21.828Z,1.70
2017-11-12T16:09:49.317Z,1.27
2017-11-12T16:12:16.788Z,1.77
2017-11-12T16:14:44.301Z,2.10
2017-11-12T16:17:11.752Z,2.60
2017-11-12T16:19:39.306Z,2.90
2017-11-12T16:22:07.541Z,3.20
2017-11-12T16:24:34.995Z,2.63
2017-11-12T16:27:02.465Z,2.10
2017-11-12T16:29:29.947Z,1.43
2017-11-12T16:31:57.410Z,2.23
2017-11-12T16:34:24.868Z,1.80
2017-11-12T16:36:52.340Z,2.67
2017-11-12T16:39:20.595Z,1.80
2017-11-12T16:41:48.080Z,2.27
2017-11-12T16:44:16.861Z,1.57
2017-11-12T16:46:44.340Z,1.77
2017-11-12T16:49:11.808Z,2.30
2017-11-12T16:51:40.062Z,1.80
2017-11-12T16:54:07.552Z,2.50
2017-11-12T16:56:35.033Z,2.47
2017-11-12T16:59:02.512Z,2.30
2017-11-12T17:01:30.785Z,1.60
2017-11-12T17:03:58.273Z,1.60
2017-11-12T17:06:25.772Z,1.33
2017-11-12T17:08:53.255Z,2.10
2017-11-12T17:11:21.542Z,1.70
2017-11-12T17:13:49.797Z,1.83
2017-11-12T17:16:19.444Z,1.70
2017-11-12T17:18:47.696Z,2.40
2017-11-12T17:21:15.925Z,1.50
2017-11-12T17:23:43.394Z,2.40
2017-11-12T17:26:10.853Z,2.40
2017-11-12T17:28:38.428Z,1.47
2017-11-12T17:31:06.664Z,2.13
2017-11-12T17:33:34.237Z,2.27
2017-11-12T17:36:01.704Z,1.73
2017-11-12T17:38:29.191Z,2.03
2017-11-12T17:40:57.430Z,1.93
2017-11-12T17:43:25.009Z,2.27
2017-11-12T17:45:53.309Z,2.50
2017-11-12T17:48:21.563Z,2.17
2017-11-12T17:50:49.134Z,1.40
2017-11-12T17:53:17.404Z,2.00
2017-11-12T17:55:44.852Z,2.20
2017-11-12T17:58:13.913Z,2.50
2017-11-12T18:00:41.372Z,2.50
2017-11-12T18:03:08.876Z,3.13
2017-11-12T18:05:36.914Z,3.17
2017-11-12T18:08:04.478Z,2.33
2017-11-12T18:10:31.924Z,1.40
2017-11-12T18:12:59.409Z,1.77
2017-11-12T18:15:26.960Z,2.03
2017-11-12T18:17:54.454Z,2.30
2017-11-12T18:20:22.693Z,2.37
2017-11-12T18:22:50.905Z,1.77
2017-11-12T18:25:18.537Z,1.57
2017-11-12T18:27:46.785Z,2.37
2017-11-12T18:30:14.266Z,2.87
2017-11-12T18:32:41.758Z,3.10
2017-11-12T18:35:09.551Z,2.43
2017-11-12T18:37:37.564Z,1.73
2017-11-12T18:40:05.805Z,1.97
2017-11-12T18:42:33.393Z,2.00
2017-11-12T18:45:00.945Z,2.83
2017-11-12T18:47:29.172Z,2.47
2017-11-12T18:49:56.652Z,2.13
2017-11-12T18:52:24.120Z,1.77
2017-11-12T18:54:53.005Z,2.23
2017-11-12T18:57:39.288Z,1.67
2017-11-12T19:00:21.625Z,2.00
2017-11-12T19:02:52.950Z,3.17
2017-11-12T19:05:26.145Z,2.90
2017-11-12T19:07:54.428Z,2.83
2017-11-12T19:10:21.901Z,3.80
2017-11-12T19:12:49.374Z,2.20
2017-11-12T19:15:19.727Z,2.10
2017-11-12T19:17:49.024Z,2.60
2017-11-12T19:20:20.091Z,2.47
2017-11-12T19:22:48.098Z,2.23
2017-11-12T19:25:16.708Z,1.83
2017-11-12T19:27:44.174Z,2.10
2017-11-12T19:30:11.672Z,1.93
2017-11-12T19:32:40.691Z,1.83
2017-11-12T19:35:08.958Z,1.30
2017-11-12T19:37:37.216Z,2.13
2017-11-12T19:40:05.158Z,2.17
2017-11-12T19:42:32.673Z,1.70
2017-11-12T19:45:00.939Z,3.40
2017-11-12T19:47:28.416Z,2.50
2017-11-12T19:49:56.681Z,2.20
2017-11-12T19:52:25.450Z,1.93
2017-11-12T19:54:52.947Z,2.47
2017-11-12T19:57:20.432Z,1.97
2017-11-12T19:59:47.909Z,1.80
2017-11-12T20:02:15.384Z,2.43
2017-11-12T20:04:44.667Z,2.07
2017-11-12T20:07:13.014Z,2.10
2017-11-12T20:09:40.538Z,2.03
2017-11-12T20:12:08.783Z,2.10
2017-11-12T20:14:36.369Z,1.63
2017-11-12T20:17:04.628Z,1.73
2017-11-12T20:19:32.100Z,1.50
2017-11-12T20:22:00.349Z,1.87
2017-11-12T20:24:28.619Z,2.10
2017-11-12T20:26:56.094Z,2.57
2017-11-12T20:29:23.569Z,1.70
2017-11-12T20:31:51.840Z,1.93
2017-11-12T20:34:20.095Z,2.00
2017-11-12T20:36:49.078Z,2.57
2017-11-12T20:39:16.571Z,2.10
2017-11-12T20:41:44.856Z,1.87
2017-11-12T20:44:12.389Z,2.03
2017-11-12T20:46:40.608Z,2.27
2017-11-12T20:49:08.190Z,2.10
2017-11-12T20:51:35.709Z,1.47
2017-11-12T20:54:03.165Z,1.67
2017-11-12T20:56:30.653Z,1.77
2017-11-12T20:58:58.150Z,1.70
2017-11-12T21:01:28.420Z,1.30
2017-11-12T21:03:55.908Z,1.33
2017-11-12T21:06:23.366Z,1.30
2017-11-12T21:08:50.849Z,1.63
2017-11-12T21:11:19.985Z,1.63
2017-11-12T21:13:47.471Z,1.10
2017-11-12T21:16:14.968Z,1.27
2017-11-12T21:18:43.226Z,1.27
2017-11-12T21:21:27.577Z,1.10
2017-11-12T21:23:55.396Z,1.00
2017-11-12T21:26:23.319Z,1.37
2017-11-12T21:28:52.740Z,2.37
2017-11-12T21:31:30.884Z,1.83
2017-11-12T21:34:03.921Z,1.33
2017-11-12T21:36:32.152Z,1.60
2017-11-12T21:38:59.660Z,1.77
2017-11-12T21:41:27.901Z,1.70
2017-11-12T21:43:55.351Z,1.10
2017-11-12T21:46:22.808Z,1.40
2017-11-12T21:48:50.378Z,2.23
2017-11-12T21:51:18.669Z,1.60
2017-11-12T21:53:46.119Z,1.40
2017-11-12T21:56:13.675Z,2.03
2017-11-12T21:58:41.144Z,1.73
2017-11-12T22:01:09.409Z,1.63
2017-11-12T22:03:36.923Z,1.77
2017-11-12T22:06:04.398Z,1.70
2017-11-12T22:08:31.858Z,2.00
2017-11-12T22:10:59.379Z,2.00
2017-11-12T22:13:26.825Z,1.63
2017-11-12T22:15:54.281Z,2.20
2017-11-12T22:18:21.771Z,1.90
2017-11-12T22:20:49.233Z,1.57
2017-11-12T22:23:16.701Z,2.07
2017-11-12T22:25:44.188Z,2.07
2017-11-12T22:28:12.421Z,1.90
2017-11-12T22:30:39.881Z,1.77
2017-11-12T22:33:07.455Z,2.60
2017-11-12T22:35:34.920Z,2.47
2017-11-12T22:38:03.896Z,1.93
2017-11-12T22:40:31.377Z,2.97
2017-11-12T22:42:59.088Z,2.30
2017-11-12T22:45:26.645Z,2.80
2017-11-12T22:47:54.128Z,3.20
2017-11-12T22:50:21.612Z,2.43
2017-11-12T22:52:49.837Z,2.80
2017-11-12T22:55:18.341Z,1.70
2017-11-12T22:57:46.715Z,2.23
2017-11-12T23:00:14.226Z,1.80
2017-11-12T23:02:41.761Z,2.40
2017-11-12T23:05:10.052Z,2.27
2017-11-12T23:07:38.292Z,2.30
2017-11-12T23:10:05.986Z,1.57
2017-11-12T23:12:34.236Z,1.80
2017-11-12T23:15:01.703Z,1.77
2017-11-12T23:17:29.173Z,1.40
2017-11-12T23:19:57.450Z,1.63
2017-11-12T23:22:25.743Z,1.87
2017-11-12T23:24:53.232Z,1.83
2017-11-12T23:27:20.716Z,1.23
2017-11-12T23:29:48.245Z,1.83
2017-11-12T23:32:15.737Z,1.43
2017-11-12T23:34:44.736Z,2.63
2017-11-12T23:37:12.201Z,2.27
2017-11-12T23:39:40.487Z,1.83
2017-11-12T23:42:08.761Z,2.40
2017-11-12T23:44:37.020Z,2.50
2017-11-12T23:47:04.541Z,1.70
2017-11-12T23:49:32.041Z,1.43
2017-11-12T23:52:00.455Z,1.80
2017-11-12T23:54:27.973Z,1.70
2017-11-12T23:56:55.438Z,1.27
2017-11-12T23:59:23.695Z,1.37
